sensor_id;sensor_type;location;lat;lon;timestamp;temperature;humidity
14934;DHT22;7560;51.364;12.384;2024-02-14T00:01:26;5.80;99.90
14934;DHT22;7560;51.364;12.384;2024-02-14T00:06:28;5.80;99.90
14934;DHT22;7560;51.364;12.384;2024-02-14T00:11:30;5.80;99.90
14934;DHT22;7560;51.364;12.384;2024-02-14T00:16:33;5.80;99.90
14934;DHT22;7560;51.364;12.384;2024-02-14T00:21:35;5.80;99.90
14934;DHT22;7560;51.364;12.384;2024-02-14T00:26:38;5.80;99.90
14934;DHT22;7560;51.364;12.384;2024-02-14T00:31:41;5.90;99.90
14934;DHT22;7560;51.364;12.384;2024-02-14T00:36:44;5.90;99.90
14934;DHT22;7560;51.364;12.384;2024-02-14T00:41:46;6.00;99.90
14934;DHT22;7560;51.364;12.384;2024-02-14T00:46:49;6.00;99.90
14934;DHT22;7560;51.364;12.384;2024-02-14T00:51:50;6.00;99.90
14934;DHT22;7560;51.364;12.384;2024-02-14T00:56:52;5.90;99.90
14934;DHT22;7560;51.364;12.384;2024-02-14T01:01:54;6.00;99.90
14934;DHT22;7560;51.364;12.384;2024-02-14T01:06:56;5.90;99.90
14934;DHT22;7560;51.364;12.384;2024-02-14T01:11:59;5.80;99.90
14934;DHT22;7560;51.364;12.384;2024-02-14T01:17:01;5.80;99.90
14934;DHT22;7560;51.364;12.384;2024-02-14T01:22:03;5.70;99.90
14934;DHT22;7560;51.364;12.384;2024-02-14T01:27:05;5.70;99.90
14934;DHT22;7560;51.364;12.384;2024-02-14T01:32:07;5.70;99.90
14934;DHT22;7560;51.364;12.384;2024-02-14T01:37:08;5.70;99.90
14934;DHT22;7560;51.364;12.384;2024-02-14T01:42:13;5.70;99.90
14934;DHT22;7560;51.364;12.384;2024-02-14T01:47:16;5.80;99.90
14934;DHT22;7560;51.364;12.384;2024-02-14T01:52:18;5.90;99.90
14934;DHT22;7560;51.364;12.384;2024-02-14T01:57:20;5.90;99.90
14934;DHT22;7560;51.364;12.384;2024-02-14T02:02:22;5.90;99.90
14934;DHT22;7560;51.364;12.384;2024-02-14T02:07:25;5.90;99.90
14934;DHT22;7560;51.364;12.384;2024-02-14T02:12:27;5.90;99.90
14934;DHT22;7560;51.364;12.384;2024-02-14T02:17:29;5.90;99.90
14934;DHT22;7560;51.364;12.384;2024-02-14T02:22:31;5.80;99.90
14934;DHT22;7560;51.364;12.384;2024-02-14T02:27:34;5.70;99.90
14934;DHT22;7560;51.364;12.384;2024-02-14T02:32:39;5.60;99.90
14934;DHT22;7560;51.364;12.384;2024-02-14T02:37:41;5.60;99.90
14934;DHT22;7560;51.364;12.384;2024-02-14T02:42:44;5.50;99.90
14934;DHT22;7560;51.364;12.384;2024-02-14T02:47:48;5.40;99.90
14934;DHT22;7560;51.364;12.384;2024-02-14T02:52:53;5.40;99.90
14934;DHT22;7560;51.364;12.384;2024-02-14T02:57:56;5.40;99.90
14934;DHT22;7560;51.364;12.384;2024-02-14T03:02:58;5.50;99.90
14934;DHT22;7560;51.364;12.384;2024-02-14T03:08:00;5.40;99.90
14934;DHT22;7560;51.364;12.384;2024-02-14T03:13:02;5.40;99.90
14934;DHT22;7560;51.364;12.384;2024-02-14T03:18:04;5.50;99.90
14934;DHT22;7560;51.364;12.384;2024-02-14T03:23:09;5.50;99.90
14934;DHT22;7560;51.364;12.384;2024-02-14T03:28:11;5.50;99.90
14934;DHT22;7560;51.364;12.384;2024-02-14T03:33:14;5.50;99.90
14934;DHT22;7560;51.364;12.384;2024-02-14T03:38:26;5.50;99.90
14934;DHT22;7560;51.364;12.384;2024-02-14T03:43:29;5.50;99.90
14934;DHT22;7560;51.364;12.384;2024-02-14T03:48:31;5.60;99.90
14934;DHT22;7560;51.364;12.384;2024-02-14T03:53:33;5.70;99.90
14934;DHT22;7560;51.364;12.384;2024-02-14T03:58:34;5.90;99.90
14934;DHT22;7560;51.364;12.384;2024-02-14T04:03:38;6.10;99.90
14934;DHT22;7560;51.364;12.384;2024-02-14T04:08:40;6.20;99.90
14934;DHT22;7560;51.364;12.384;2024-02-14T04:13:42;6.40;99.90
14934;DHT22;7560;51.364;12.384;2024-02-14T04:18:44;6.40;99.90
14934;DHT22;7560;51.364;12.384;2024-02-14T04:23:46;6.50;99.90
14934;DHT22;7560;51.364;12.384;2024-02-14T04:28:48;6.60;99.90
14934;DHT22;7560;51.364;12.384;2024-02-14T04:33:50;6.60;99.90
14934;DHT22;7560;51.364;12.384;2024-02-14T04:38:54;6.70;99.90
14934;DHT22;7560;51.364;12.384;2024-02-14T04:43:57;6.70;99.90
14934;DHT22;7560;51.364;12.384;2024-02-14T04:48:59;6.70;99.90
14934;DHT22;7560;51.364;12.384;2024-02-14T04:54:02;6.80;99.90
14934;DHT22;7560;51.364;12.384;2024-02-14T04:59:04;6.90;99.90
14934;DHT22;7560;51.364;12.384;2024-02-14T05:04:06;6.90;99.90
14934;DHT22;7560;51.364;12.384;2024-02-14T05:09:08;6.90;99.90
14934;DHT22;7560;51.364;12.384;2024-02-14T05:14:12;7.00;99.90
14934;DHT22;7560;51.364;12.384;2024-02-14T05:19:14;7.10;99.90
14934;DHT22;7560;51.364;12.384;2024-02-14T05:24:16;7.20;99.90
14934;DHT22;7560;51.364;12.384;2024-02-14T05:29:18;7.20;99.90
14934;DHT22;7560;51.364;12.384;2024-02-14T05:34:21;7.30;99.90
14934;DHT22;7560;51.364;12.384;2024-02-14T05:39:24;7.40;99.90
14934;DHT22;7560;51.364;12.384;2024-02-14T05:44:25;7.40;99.90
14934;DHT22;7560;51.364;12.384;2024-02-14T05:49:29;7.40;99.90
14934;DHT22;7560;51.364;12.384;2024-02-14T05:54:31;7.50;99.90
14934;DHT22;7560;51.364;12.384;2024-02-14T05:59:33;7.50;99.90
14934;DHT22;7560;51.364;12.384;2024-02-14T06:04:34;7.50;99.90
14934;DHT22;7560;51.364;12.384;2024-02-14T06:09:37;7.50;99.90
14934;DHT22;7560;51.364;12.384;2024-02-14T06:14:39;7.60;99.90
14934;DHT22;7560;51.364;12.384;2024-02-14T06:19:41;7.40;99.90
14934;DHT22;7560;51.364;12.384;2024-02-14T06:24:43;7.40;99.90
14934;DHT22;7560;51.364;12.384;2024-02-14T06:29:44;7.40;99.90
14934;DHT22;7560;51.364;12.384;2024-02-14T06:34:46;7.50;99.90
14934;DHT22;7560;51.364;12.384;2024-02-14T06:39:48;7.60;99.90
14934;DHT22;7560;51.364;12.384;2024-02-14T06:44:50;7.70;99.90
14934;DHT22;7560;51.364;12.384;2024-02-14T06:49:52;7.80;99.90
14934;DHT22;7560;51.364;12.384;2024-02-14T06:54:54;7.80;99.90
14934;DHT22;7560;51.364;12.384;2024-02-14T06:59:56;7.80;99.90
14934;DHT22;7560;51.364;12.384;2024-02-14T07:04:57;7.80;99.90
14934;DHT22;7560;51.364;12.384;2024-02-14T07:09:59;7.90;99.90
14934;DHT22;7560;51.364;12.384;2024-02-14T07:15:01;7.80;99.90
14934;DHT22;7560;51.364;12.384;2024-02-14T07:20:03;7.90;99.90
14934;DHT22;7560;51.364;12.384;2024-02-14T07:25:06;7.90;99.90
14934;DHT22;7560;51.364;12.384;2024-02-14T07:30:10;7.90;99.90
14934;DHT22;7560;51.364;12.384;2024-02-14T07:35:12;7.90;99.90
14934;DHT22;7560;51.364;12.384;2024-02-14T07:40:15;7.90;99.90
14934;DHT22;7560;51.364;12.384;2024-02-14T07:45:19;8.00;99.90
14934;DHT22;7560;51.364;12.384;2024-02-14T07:50:21;8.10;99.90
14934;DHT22;7560;51.364;12.384;2024-02-14T07:55:23;8.20;99.90
14934;DHT22;7560;51.364;12.384;2024-02-14T08:00:25;8.10;99.90
14934;DHT22;7560;51.364;12.384;2024-02-14T08:05:27;8.10;99.90
14934;DHT22;7560;51.364;12.384;2024-02-14T08:10:30;8.30;99.90
14934;DHT22;7560;51.364;12.384;2024-02-14T08:15:32;8.50;99.90
14934;DHT22;7560;51.364;12.384;2024-02-14T08:20:34;9.00;99.90
14934;DHT22;7560;51.364;12.384;2024-02-14T08:25:36;9.30;99.90
14934;DHT22;7560;51.364;12.384;2024-02-14T08:30:38;9.30;99.90
14934;DHT22;7560;51.364;12.384;2024-02-14T08:35:40;9.50;99.90
14934;DHT22;7560;51.364;12.384;2024-02-14T08:40:44;9.70;99.90
14934;DHT22;7560;51.364;12.384;2024-02-14T08:45:46;9.60;99.90
14934;DHT22;7560;51.364;12.384;2024-02-14T08:50:48;9.60;99.90
14934;DHT22;7560;51.364;12.384;2024-02-14T08:55:50;9.80;99.90
14934;DHT22;7560;51.364;12.384;2024-02-14T09:00:53;9.90;99.90
14934;DHT22;7560;51.364;12.384;2024-02-14T09:06:09;10.00;99.90
14934;DHT22;7560;51.364;12.384;2024-02-14T09:11:11;10.10;99.90
14934;DHT22;7560;51.364;12.384;2024-02-14T09:16:14;10.20;99.90
14934;DHT22;7560;51.364;12.384;2024-02-14T09:21:17;10.40;99.90
14934;DHT22;7560;51.364;12.384;2024-02-14T09:26:20;10.40;99.90
14934;DHT22;7560;51.364;12.384;2024-02-14T09:31:22;10.50;99.90
14934;DHT22;7560;51.364;12.384;2024-02-14T09:36:24;10.70;99.90
14934;DHT22;7560;51.364;12.384;2024-02-14T09:41:40;10.70;99.90
14934;DHT22;7560;51.364;12.384;2024-02-14T09:46:42;10.70;99.90
14934;DHT22;7560;51.364;12.384;2024-02-14T09:51:46;10.70;99.90
14934;DHT22;7560;51.364;12.384;2024-02-14T09:56:50;10.90;99.90
14934;DHT22;7560;51.364;12.384;2024-02-14T10:01:55;11.10;99.90
14934;DHT22;7560;51.364;12.384;2024-02-14T10:06:57;11.30;99.90
14934;DHT22;7560;51.364;12.384;2024-02-14T10:11:59;11.40;99.90
14934;DHT22;7560;51.364;12.384;2024-02-14T10:17:01;11.50;99.90
14934;DHT22;7560;51.364;12.384;2024-02-14T10:22:02;11.50;99.90
14934;DHT22;7560;51.364;12.384;2024-02-14T10:27:06;11.50;99.90
14934;DHT22;7560;51.364;12.384;2024-02-14T10:32:14;11.50;99.90
14934;DHT22;7560;51.364;12.384;2024-02-14T10:37:17;11.40;99.90
14934;DHT22;7560;51.364;12.384;2024-02-14T10:42:20;11.40;99.90
14934;DHT22;7560;51.364;12.384;2024-02-14T10:47:29;11.40;99.90
14934;DHT22;7560;51.364;12.384;2024-02-14T10:52:34;11.30;99.90
14934;DHT22;7560;51.364;12.384;2024-02-14T10:57:36;11.30;99.90
14934;DHT22;7560;51.364;12.384;2024-02-14T11:02:38;11.40;99.90
14934;DHT22;7560;51.364;12.384;2024-02-14T11:07:47;11.40;99.90
14934;DHT22;7560;51.364;12.384;2024-02-14T11:12:50;11.40;99.90
14934;DHT22;7560;51.364;12.384;2024-02-14T11:18:04;11.70;99.90
14934;DHT22;7560;51.364;12.384;2024-02-14T11:23:07;11.60;99.90
14934;DHT22;7560;51.364;12.384;2024-02-14T11:28:17;11.70;99.90
14934;DHT22;7560;51.364;12.384;2024-02-14T11:33:24;11.90;99.90
14934;DHT22;7560;51.364;12.384;2024-02-14T11:38:26;12.10;99.90
14934;DHT22;7560;51.364;12.384;2024-02-14T11:43:28;12.20;99.90
14934;DHT22;7560;51.364;12.384;2024-02-14T11:48:30;12.50;99.90
14934;DHT22;7560;51.364;12.384;2024-02-14T11:53:33;12.70;99.90
14934;DHT22;7560;51.364;12.384;2024-02-14T11:58:35;12.70;99.90
14934;DHT22;7560;51.364;12.384;2024-02-14T12:03:37;12.50;99.90
14934;DHT22;7560;51.364;12.384;2024-02-14T12:08:40;12.20;99.90
14934;DHT22;7560;51.364;12.384;2024-02-14T12:13:43;12.30;99.90
14934;DHT22;7560;51.364;12.384;2024-02-14T12:18:48;12.50;99.90
14934;DHT22;7560;51.364;12.384;2024-02-14T12:23:58;12.80;99.90
14934;DHT22;7560;51.364;12.384;2024-02-14T12:29:04;13.00;99.90
14934;DHT22;7560;51.364;12.384;2024-02-14T12:34:06;13.00;99.90
14934;DHT22;7560;51.364;12.384;2024-02-14T12:39:08;13.20;99.90
14934;DHT22;7560;51.364;12.384;2024-02-14T12:44:14;13.30;99.90
14934;DHT22;7560;51.364;12.384;2024-02-14T12:49:16;13.20;99.90
14934;DHT22;7560;51.364;12.384;2024-02-14T12:54:19;13.20;99.90
14934;DHT22;7560;51.364;12.384;2024-02-14T12:59:21;13.20;99.90
14934;DHT22;7560;51.364;12.384;2024-02-14T13:04:24;12.90;99.90
14934;DHT22;7560;51.364;12.384;2024-02-14T13:09:26;12.90;99.90
14934;DHT22;7560;51.364;12.384;2024-02-14T13:14:29;12.70;99.90
14934;DHT22;7560;51.364;12.384;2024-02-14T13:19:35;12.70;99.90
14934;DHT22;7560;51.364;12.384;2024-02-14T13:24:37;12.80;99.90
14934;DHT22;7560;51.364;12.384;2024-02-14T13:29:40;13.00;99.90
14934;DHT22;7560;51.364;12.384;2024-02-14T13:34:42;12.90;99.90
14934;DHT22;7560;51.364;12.384;2024-02-14T13:39:45;12.80;99.90
14934;DHT22;7560;51.364;12.384;2024-02-14T13:44:47;12.70;99.90
14934;DHT22;7560;51.364;12.384;2024-02-14T13:49:49;12.60;99.90
14934;DHT22;7560;51.364;12.384;2024-02-14T13:54:51;12.60;99.90
14934;DHT22;7560;51.364;12.384;2024-02-14T13:59:53;12.50;99.90
14934;DHT22;7560;51.364;12.384;2024-02-14T14:04:55;12.50;99.90
14934;DHT22;7560;51.364;12.384;2024-02-14T14:09:57;12.80;99.90
14934;DHT22;7560;51.364;12.384;2024-02-14T14:15:01;13.00;99.90
14934;DHT22;7560;51.364;12.384;2024-02-14T14:20:04;13.30;99.90
14934;DHT22;7560;51.364;12.384;2024-02-14T14:25:09;13.40;99.90
14934;DHT22;7560;51.364;12.384;2024-02-14T14:30:13;13.20;99.90
14934;DHT22;7560;51.364;12.384;2024-02-14T14:35:15;13.40;99.90
14934;DHT22;7560;51.364;12.384;2024-02-14T14:40:17;13.20;99.90
14934;DHT22;7560;51.364;12.384;2024-02-14T14:45:19;12.90;99.90
14934;DHT22;7560;51.364;12.384;2024-02-14T14:50:21;12.70;99.90
14934;DHT22;7560;51.364;12.384;2024-02-14T14:55:25;12.40;99.90
14934;DHT22;7560;51.364;12.384;2024-02-14T15:00:27;12.40;99.90
14934;DHT22;7560;51.364;12.384;2024-02-14T15:05:29;12.50;99.90
14934;DHT22;7560;51.364;12.384;2024-02-14T15:10:31;12.30;99.90
14934;DHT22;7560;51.364;12.384;2024-02-14T15:15:33;12.20;99.90
14934;DHT22;7560;51.364;12.384;2024-02-14T15:20:35;12.00;99.90
14934;DHT22;7560;51.364;12.384;2024-02-14T15:25:39;11.90;99.90
14934;DHT22;7560;51.364;12.384;2024-02-14T15:30:41;11.70;99.90
14934;DHT22;7560;51.364;12.384;2024-02-14T15:36:02;11.70;99.90
14934;DHT22;7560;51.364;12.384;2024-02-14T15:41:04;11.60;99.90
14934;DHT22;7560;51.364;12.384;2024-02-14T15:46:08;11.60;99.90
14934;DHT22;7560;51.364;12.384;2024-02-14T15:51:10;11.60;99.90
14934;DHT22;7560;51.364;12.384;2024-02-14T15:56:12;11.60;99.90
14934;DHT22;7560;51.364;12.384;2024-02-14T16:01:15;11.50;99.90
14934;DHT22;7560;51.364;12.384;2024-02-14T16:06:18;11.40;99.90
14934;DHT22;7560;51.364;12.384;2024-02-14T16:11:20;11.30;99.90
14934;DHT22;7560;51.364;12.384;2024-02-14T16:16:22;11.30;99.90
14934;DHT22;7560;51.364;12.384;2024-02-14T16:21:24;11.30;99.90
14934;DHT22;7560;51.364;12.384;2024-02-14T16:26:26;11.20;99.90
14934;DHT22;7560;51.364;12.384;2024-02-14T16:31:31;11.30;99.90
14934;DHT22;7560;51.364;12.384;2024-02-14T16:36:33;11.20;99.90
14934;DHT22;7560;51.364;12.384;2024-02-14T16:41:35;11.10;99.90
14934;DHT22;7560;51.364;12.384;2024-02-14T16:46:39;11.00;99.90
14934;DHT22;7560;51.364;12.384;2024-02-14T16:51:41;10.90;99.90
14934;DHT22;7560;51.364;12.384;2024-02-14T16:56:43;10.90;99.90
14934;DHT22;7560;51.364;12.384;2024-02-14T17:01:45;10.90;99.90
14934;DHT22;7560;51.364;12.384;2024-02-14T17:06:46;10.80;99.90
14934;DHT22;7560;51.364;12.384;2024-02-14T17:11:48;10.80;99.90
14934;DHT22;7560;51.364;12.384;2024-02-14T17:16:50;10.70;99.90
14934;DHT22;7560;51.364;12.384;2024-02-14T17:21:57;10.70;99.90
14934;DHT22;7560;51.364;12.384;2024-02-14T17:26:59;10.60;99.90
14934;DHT22;7560;51.364;12.384;2024-02-14T17:32:02;10.60;99.90
14934;DHT22;7560;51.364;12.384;2024-02-14T17:37:03;10.50;99.90
14934;DHT22;7560;51.364;12.384;2024-02-14T17:42:05;10.50;99.90
14934;DHT22;7560;51.364;12.384;2024-02-14T17:47:07;10.40;99.90
14934;DHT22;7560;51.364;12.384;2024-02-14T17:52:09;10.40;99.90
14934;DHT22;7560;51.364;12.384;2024-02-14T17:57:11;10.40;99.90
14934;DHT22;7560;51.364;12.384;2024-02-14T18:02:13;10.40;99.90
14934;DHT22;7560;51.364;12.384;2024-02-14T18:07:15;10.30;99.90
14934;DHT22;7560;51.364;12.384;2024-02-14T18:12:17;10.20;99.90
14934;DHT22;7560;51.364;12.384;2024-02-14T18:17:19;10.20;99.90
14934;DHT22;7560;51.364;12.384;2024-02-14T18:22:21;10.20;99.90
14934;DHT22;7560;51.364;12.384;2024-02-14T18:27:23;10.30;99.90
14934;DHT22;7560;51.364;12.384;2024-02-14T18:32:29;10.20;99.90
14934;DHT22;7560;51.364;12.384;2024-02-14T18:37:31;10.30;99.90
14934;DHT22;7560;51.364;12.384;2024-02-14T18:42:32;10.40;99.90
14934;DHT22;7560;51.364;12.384;2024-02-14T18:47:35;10.50;99.90
14934;DHT22;7560;51.364;12.384;2024-02-14T18:52:37;10.50;99.90
14934;DHT22;7560;51.364;12.384;2024-02-14T18:57:40;10.40;99.90
14934;DHT22;7560;51.364;12.384;2024-02-14T19:02:41;10.40;99.90
14934;DHT22;7560;51.364;12.384;2024-02-14T19:07:44;10.40;99.90
14934;DHT22;7560;51.364;12.384;2024-02-14T19:12:46;10.50;99.90
14934;DHT22;7560;51.364;12.384;2024-02-14T19:17:48;10.50;99.90
14934;DHT22;7560;51.364;12.384;2024-02-14T19:22:50;10.40;99.90
14934;DHT22;7560;51.364;12.384;2024-02-14T19:27:52;10.40;99.90
14934;DHT22;7560;51.364;12.384;2024-02-14T19:32:54;10.30;99.90
14934;DHT22;7560;51.364;12.384;2024-02-14T19:37:56;10.30;99.90
14934;DHT22;7560;51.364;12.384;2024-02-14T19:42:57;10.20;99.90
14934;DHT22;7560;51.364;12.384;2024-02-14T19:47:59;10.20;99.90
14934;DHT22;7560;51.364;12.384;2024-02-14T19:53:01;10.30;99.90
14934;DHT22;7560;51.364;12.384;2024-02-14T19:58:04;10.30;99.90
14934;DHT22;7560;51.364;12.384;2024-02-14T20:03:06;10.40;99.90
14934;DHT22;7560;51.364;12.384;2024-02-14T20:08:08;10.50;99.90
14934;DHT22;7560;51.364;12.384;2024-02-14T20:13:10;10.50;99.90
14934;DHT22;7560;51.364;12.384;2024-02-14T20:18:12;10.50;99.90
14934;DHT22;7560;51.364;12.384;2024-02-14T20:23:17;10.60;99.90
14934;DHT22;7560;51.364;12.384;2024-02-14T20:28:19;10.60;99.90
14934;DHT22;7560;51.364;12.384;2024-02-14T20:33:22;10.50;99.90
14934;DHT22;7560;51.364;12.384;2024-02-14T20:38:27;10.50;99.90
14934;DHT22;7560;51.364;12.384;2024-02-14T20:43:29;10.50;99.90
14934;DHT22;7560;51.364;12.384;2024-02-14T20:48:31;10.40;99.90
14934;DHT22;7560;51.364;12.384;2024-02-14T20:53:33;10.30;99.90
14934;DHT22;7560;51.364;12.384;2024-02-14T20:58:36;10.30;99.90
14934;DHT22;7560;51.364;12.384;2024-02-14T21:03:58;10.40;99.90
14934;DHT22;7560;51.364;12.384;2024-02-14T21:09:00;10.20;99.90
14934;DHT22;7560;51.364;12.384;2024-02-14T21:14:02;10.10;99.90
14934;DHT22;7560;51.364;12.384;2024-02-14T21:19:05;10.20;99.90
14934;DHT22;7560;51.364;12.384;2024-02-14T21:24:07;10.20;99.90
14934;DHT22;7560;51.364;12.384;2024-02-14T21:29:09;10.20;99.90
14934;DHT22;7560;51.364;12.384;2024-02-14T21:34:11;10.10;99.90
14934;DHT22;7560;51.364;12.384;2024-02-14T21:39:13;10.20;99.90
14934;DHT22;7560;51.364;12.384;2024-02-14T21:44:18;10.10;99.90
14934;DHT22;7560;51.364;12.384;2024-02-14T21:49:22;10.00;99.90
14934;DHT22;7560;51.364;12.384;2024-02-14T21:54:25;10.00;99.90
14934;DHT22;7560;51.364;12.384;2024-02-14T21:59:27;10.00;99.90
14934;DHT22;7560;51.364;12.384;2024-02-14T22:04:29;9.90;99.90
14934;DHT22;7560;51.364;12.384;2024-02-14T22:09:31;9.90;99.90
14934;DHT22;7560;51.364;12.384;2024-02-14T22:14:33;9.90;99.90
14934;DHT22;7560;51.364;12.384;2024-02-14T22:19:36;9.80;99.90
14934;DHT22;7560;51.364;12.384;2024-02-14T22:24:40;9.90;99.90
14934;DHT22;7560;51.364;12.384;2024-02-14T22:29:42;9.80;99.90
14934;DHT22;7560;51.364;12.384;2024-02-14T22:34:44;9.80;99.90
14934;DHT22;7560;51.364;12.384;2024-02-14T22:39:45;9.90;99.90
14934;DHT22;7560;51.364;12.384;2024-02-14T22:44:47;9.90;99.90
14934;DHT22;7560;51.364;12.384;2024-02-14T22:49:49;9.90;99.90
14934;DHT22;7560;51.364;12.384;2024-02-14T22:54:51;9.90;99.90
14934;DHT22;7560;51.364;12.384;2024-02-14T22:59:54;10.00;99.90
14934;DHT22;7560;51.364;12.384;2024-02-14T23:04:56;10.00;99.90
14934;DHT22;7560;51.364;12.384;2024-02-14T23:09:58;10.00;99.90
14934;DHT22;7560;51.364;12.384;2024-02-14T23:15:00;10.00;99.90
14934;DHT22;7560;51.364;12.384;2024-02-14T23:20:03;10.00;99.90
14934;DHT22;7560;51.364;12.384;2024-02-14T23:25:08;9.90;99.90
14934;DHT22;7560;51.364;12.384;2024-02-14T23:30:12;9.90;99.90
14934;DHT22;7560;51.364;12.384;2024-02-14T23:35:17;9.90;99.90
14934;DHT22;7560;51.364;12.384;2024-02-14T23:40:19;9.90;99.90
14934;DHT22;7560;51.364;12.384;2024-02-14T23:45:21;9.90;99.90
14934;DHT22;7560;51.364;12.384;2024-02-14T23:50:23;9.90;99.90
14934;DHT22;7560;51.364;12.384;2024-02-14T23:55:26;9.90;99.90
